createdAt,value
2023-02-14T00:01:46.966Z,83.67
2023-02-14T00:04:15.520Z,83.68
2023-02-14T00:06:44.363Z,83.81
2023-02-14T00:09:14.777Z,83.77
2023-02-14T00:11:43.404Z,83.85
2023-02-14T00:14:31.766Z,83.76
2023-02-14T00:17:00.007Z,83.80
2023-02-14T00:19:28.683Z,83.72
2023-02-14T00:21:57.101Z,83.70
2023-02-14T00:24:27.178Z,83.75
2023-02-14T00:26:55.481Z,83.78
2023-02-14T00:29:26.662Z,83.79
2023-02-14T00:31:54.810Z,83.67
2023-02-14T00:34:23.133Z,83.77
2023-02-14T00:36:51.754Z,83.67
2023-02-14T00:39:20.692Z,83.86
2023-02-14T00:41:49.031Z,83.86
2023-02-14T00:44:17.090Z,84.03
2023-02-14T00:46:46.886Z,84.26
2023-02-14T00:49:16.045Z,84.37
2023-02-14T00:51:44.180Z,84.19
2023-02-14T00:54:12.245Z,84.23
2023-02-14T00:56:40.208Z,84.78
2023-02-14T00:59:09.154Z,84.84
2023-02-14T01:01:37.266Z,84.70
2023-02-14T01:04:07.808Z,84.82
2023-02-14T01:06:35.910Z,84.80
2023-02-14T01:09:04.613Z,84.85
2023-02-14T01:11:33.056Z,84.63
2023-02-14T01:14:01.991Z,84.89
2023-02-14T01:16:31.019Z,85.04
2023-02-14T01:19:00.108Z,84.93
2023-02-14T01:21:31.119Z,84.55
2023-02-14T01:24:01.034Z,84.32
2023-02-14T01:26:30.996Z,84.29
2023-02-14T01:28:59.067Z,84.71
2023-02-14T01:31:29.178Z,84.97
2023-02-14T01:34:00.121Z,84.91
2023-02-14T01:36:31.205Z,84.81
2023-02-14T01:39:02.742Z,84.79
2023-02-14T01:41:32.826Z,84.69
2023-02-14T01:44:04.673Z,84.77
2023-02-14T01:46:34.419Z,84.79
2023-02-14T01:49:08.323Z,84.78
2023-02-14T01:51:39.811Z,84.47
2023-02-14T01:54:08.861Z,84.08
2023-02-14T01:56:40.029Z,84.04
2023-02-14T01:59:12.831Z,84.17
2023-02-14T02:01:42.534Z,84.36
2023-02-14T02:04:12.328Z,84.43
2023-02-14T02:06:44.449Z,84.35
2023-02-14T02:09:16.606Z,84.44
2023-02-14T02:11:45.172Z,84.66
2023-02-14T02:14:23.083Z,84.93
2023-02-14T02:17:04.484Z,85.11
2023-02-14T02:20:09.128Z,85.27
2023-02-14T02:22:59.960Z,85.40
2023-02-14T02:25:46.409Z,85.20
2023-02-14T02:28:32.536Z,84.89
2023-02-14T02:31:16.672Z,84.55
2023-02-14T02:34:22.427Z,84.53
2023-02-14T02:37:24.995Z,84.48
2023-02-14T02:40:04.775Z,84.35
2023-02-14T02:42:40.418Z,84.62
2023-02-14T02:45:13.757Z,84.75
2023-02-14T02:47:46.050Z,84.77
2023-02-14T02:50:36.973Z,84.65
2023-02-14T02:53:09.596Z,84.67
2023-02-14T02:56:01.916Z,84.74
2023-02-14T02:58:32.807Z,84.85
2023-02-14T03:01:02.621Z,84.83
2023-02-14T03:03:51.315Z,84.68
2023-02-14T03:06:19.367Z,84.74
2023-02-14T03:08:48.935Z,84.77
2023-02-14T03:11:17.457Z,84.81
2023-02-14T03:14:00.801Z,84.65
2023-02-14T03:16:34.796Z,84.59
2023-02-14T03:19:13.774Z,84.76
2023-02-14T03:21:45.137Z,85.05
2023-02-14T03:24:20.679Z,85.10
2023-02-14T03:26:50.309Z,85.17
2023-02-14T03:29:24.160Z,84.88
2023-02-14T03:31:59.414Z,85.07
2023-02-14T03:34:33.020Z,85.50
2023-02-14T03:37:05.142Z,85.57
2023-02-14T03:39:40.596Z,85.60
2023-02-14T03:42:14.554Z,85.86
2023-02-14T03:44:43.373Z,86.01
2023-02-14T03:47:13.766Z,86.09
2023-02-14T03:49:46.462Z,85.93
2023-02-14T03:52:15.443Z,85.57
2023-02-14T03:54:49.057Z,85.48
2023-02-14T03:57:21.306Z,85.77
2023-02-14T03:59:49.567Z,85.79
2023-02-14T04:02:21.678Z,85.86
2023-02-14T04:04:51.660Z,85.96
2023-02-14T04:07:21.914Z,86.16
2023-02-14T04:09:51.533Z,86.16
2023-02-14T04:12:32.367Z,86.05
2023-02-14T04:15:06.395Z,86.17
2023-02-14T04:17:52.270Z,86.27
2023-02-14T04:20:20.553Z,86.38
2023-02-14T04:22:49.203Z,86.53
2023-02-14T04:25:19.558Z,86.47
2023-02-14T04:27:47.875Z,86.41
2023-02-14T04:30:18.117Z,86.34
2023-02-14T04:32:46.475Z,86.49
2023-02-14T04:35:15.972Z,86.68
2023-02-14T04:37:45.588Z,86.53
2023-02-14T04:40:17.315Z,86.61
2023-02-14T04:42:47.284Z,86.86
2023-02-14T04:45:15.873Z,86.67
2023-02-14T04:47:44.300Z,86.63
2023-02-14T04:50:12.377Z,86.35
2023-02-14T04:52:40.828Z,86.27
2023-02-14T04:55:11.223Z,86.42
2023-02-14T04:57:39.655Z,86.77
2023-02-14T05:00:10.531Z,86.72
2023-02-14T05:02:39.113Z,86.54
2023-02-14T05:05:07.844Z,86.57
2023-02-14T05:07:35.876Z,86.81
2023-02-14T05:10:07.302Z,86.57
2023-02-14T05:12:35.743Z,86.79
2023-02-14T05:15:05.291Z,86.82
2023-02-14T05:17:34.876Z,86.87
2023-02-14T05:20:03.220Z,86.95
2023-02-14T05:22:32.323Z,86.82
2023-02-14T05:25:00.392Z,86.94
2023-02-14T05:27:28.476Z,86.93
2023-02-14T05:29:56.646Z,86.84
2023-02-14T05:32:25.488Z,87.05
2023-02-14T05:34:55.188Z,87.08
2023-02-14T05:37:23.234Z,87.02
2023-02-14T05:39:52.307Z,87.11
2023-02-14T05:42:21.582Z,87.13
2023-02-14T05:44:49.733Z,87.02
2023-02-14T05:47:17.970Z,86.81
2023-02-14T05:49:46.082Z,86.97
2023-02-14T05:52:15.496Z,87.26
2023-02-14T05:54:43.944Z,87.22
2023-02-14T05:57:13.151Z,87.21
2023-02-14T05:59:41.590Z,87.17
2023-02-14T06:02:10.276Z,86.91
2023-02-14T06:04:38.449Z,87.42
2023-02-14T06:07:08.017Z,87.97
2023-02-14T06:09:39.814Z,87.94
2023-02-14T06:12:10.411Z,87.74
2023-02-14T06:14:38.745Z,88.52
2023-02-14T06:17:06.912Z,87.96
2023-02-14T06:19:35.544Z,87.32
2023-02-14T06:22:04.067Z,87.20
2023-02-14T06:24:32.462Z,87.43
2023-02-14T06:27:02.310Z,87.17
2023-02-14T06:29:32.575Z,86.81
2023-02-14T06:32:06.083Z,86.53
2023-02-14T06:34:35.155Z,86.42
2023-02-14T06:37:03.350Z,86.76
2023-02-14T06:39:31.836Z,86.90
2023-02-14T06:41:59.913Z,86.65
2023-02-14T06:44:29.626Z,86.64
2023-02-14T06:46:57.693Z,86.60
2023-02-14T06:49:25.822Z,86.72
2023-02-14T06:51:54.185Z,86.90
2023-02-14T06:54:22.692Z,87.12
2023-02-14T06:56:50.760Z,87.15
2023-02-14T06:59:19.310Z,87.16
2023-02-14T07:01:48.977Z,87.05
2023-02-14T07:04:19.911Z,86.85
2023-02-14T07:06:48.352Z,86.91
2023-02-14T07:09:19.274Z,87.19
2023-02-14T07:11:48.290Z,87.48
2023-02-14T07:14:16.725Z,87.28
2023-02-14T07:16:45.336Z,87.20
2023-02-14T07:19:15.169Z,87.26
2023-02-14T07:21:43.235Z,87.31
2023-02-14T07:24:11.710Z,87.56
2023-02-14T07:26:50.961Z,87.58
2023-02-14T07:29:19.139Z,87.60
2023-02-14T07:31:47.597Z,87.47
2023-02-14T07:34:17.301Z,87.13
2023-02-14T07:36:45.298Z,87.10
2023-02-14T07:39:14.605Z,87.13
2023-02-14T07:41:42.607Z,87.00
2023-02-14T07:44:11.134Z,87.18
2023-02-14T07:46:39.352Z,87.09
2023-02-14T07:49:08.004Z,87.13
2023-02-14T07:51:37.563Z,87.22
2023-02-14T07:54:05.840Z,87.22
2023-02-14T07:56:34.366Z,87.00
2023-02-14T07:59:02.491Z,86.70
2023-02-14T08:01:30.641Z,86.92
2023-02-14T08:03:58.748Z,86.90
2023-02-14T08:06:28.021Z,86.49
2023-02-14T08:08:57.595Z,86.49
2023-02-14T08:11:43.025Z,86.55
2023-02-14T08:14:11.193Z,86.07
2023-02-14T08:16:43.088Z,85.95
2023-02-14T08:19:11.101Z,85.46
2023-02-14T08:21:39.409Z,85.04
2023-02-14T08:24:09.004Z,84.72
2023-02-14T08:26:37.668Z,84.39
2023-02-14T08:29:07.078Z,84.32
2023-02-14T08:31:36.658Z,84.05
2023-02-14T08:34:05.254Z,84.02
2023-02-14T08:36:34.901Z,83.27
2023-02-14T08:39:04.445Z,83.14
2023-02-14T08:41:34.265Z,83.49
2023-02-14T08:44:02.781Z,83.23
2023-02-14T08:46:31.245Z,83.37
2023-02-14T08:48:59.466Z,83.17
2023-02-14T08:51:27.627Z,82.38
2023-02-14T08:53:56.269Z,82.51
2023-02-14T08:56:24.994Z,82.24
2023-02-14T08:58:55.496Z,81.64
2023-02-14T09:01:24.098Z,81.76
2023-02-14T09:03:52.343Z,81.61
2023-02-14T09:06:20.804Z,81.79
2023-02-14T09:08:48.838Z,81.63
2023-02-14T09:11:19.380Z,81.85
2023-02-14T09:13:48.297Z,81.69
2023-02-14T09:16:21.808Z,81.37
2023-02-14T09:18:51.605Z,81.85
2023-02-14T09:21:23.639Z,82.18
2023-02-14T09:23:52.704Z,82.08
2023-02-14T09:26:21.046Z,81.79
2023-02-14T09:28:49.654Z,81.26
2023-02-14T09:31:20.793Z,80.94
2023-02-14T09:34:07.959Z,81.35
2023-02-14T09:36:53.931Z,81.24
2023-02-14T09:39:22.365Z,81.15
2023-02-14T09:42:00.712Z,81.18
2023-02-14T09:44:32.782Z,81.16
2023-02-14T09:47:07.818Z,80.86
2023-02-14T09:49:40.007Z,81.24
2023-02-14T09:52:08.766Z,80.93
2023-02-14T09:54:37.320Z,80.78
2023-02-14T09:57:12.117Z,79.61
2023-02-14T09:59:44.975Z,79.55
2023-02-14T10:02:35.273Z,80.22
2023-02-14T10:05:10.128Z,80.04
2023-02-14T10:07:46.269Z,79.57
2023-02-14T10:10:17.058Z,80.29
2023-02-14T10:12:48.900Z,80.01
2023-02-14T10:15:19.262Z,80.04
2023-02-14T10:17:52.832Z,79.90
2023-02-14T10:20:25.876Z,79.87
2023-02-14T10:23:02.507Z,79.10
2023-02-14T10:25:35.606Z,79.57
2023-02-14T10:28:04.060Z,79.46
2023-02-14T10:30:38.901Z,79.88
2023-02-14T10:33:14.981Z,79.18
2023-02-14T10:35:48.293Z,79.65
2023-02-14T10:38:19.859Z,79.89
2023-02-14T10:41:05.518Z,79.37
2023-02-14T10:43:41.058Z,79.74
2023-02-14T10:46:17.075Z,80.09
2023-02-14T10:48:58.338Z,79.49
2023-02-14T10:51:33.973Z,79.38
2023-02-14T10:57:56.246Z,79.09
2023-02-14T11:00:27.377Z,79.49
2023-02-14T11:02:59.145Z,79.96
2023-02-14T11:05:48.949Z,80.50
2023-02-14T11:08:23.234Z,80.56
2023-02-14T11:10:51.630Z,79.14
2023-02-14T11:13:34.617Z,79.37
2023-02-14T11:16:05.448Z,79.43
2023-02-14T11:18:37.469Z,80.73
2023-02-14T11:21:10.131Z,79.68
2023-02-14T11:23:40.951Z,78.83
2023-02-14T11:26:15.286Z,78.01
2023-02-14T11:28:52.034Z,77.50
2023-02-14T11:31:27.581Z,77.49
2023-02-14T11:33:55.957Z,78.09
2023-02-14T11:36:25.790Z,77.44
2023-02-14T11:38:58.272Z,76.61
2023-02-14T11:41:27.681Z,76.78
2023-02-14T11:44:15.293Z,77.26
2023-02-14T11:46:52.775Z,77.64
2023-02-14T11:49:29.297Z,78.32
2023-02-14T11:52:00.148Z,78.10
2023-02-14T11:54:35.747Z,78.18
2023-02-14T11:57:07.809Z,78.91
2023-02-14T11:59:40.610Z,78.88
2023-02-14T12:02:22.917Z,78.34
2023-02-14T12:04:53.414Z,78.47
2023-02-14T12:07:27.645Z,78.10
2023-02-14T12:10:20.396Z,78.86
2023-02-14T12:12:53.425Z,79.15
2023-02-14T12:15:36.755Z,79.42
2023-02-14T12:18:26.353Z,79.42
2023-02-14T12:20:58.248Z,79.64
2023-02-14T12:23:33.781Z,79.51
2023-02-14T12:26:04.683Z,78.87
2023-02-14T12:28:40.472Z,78.18
2023-02-14T12:31:11.949Z,79.01
2023-02-14T12:33:41.637Z,79.04
2023-02-14T12:36:13.845Z,79.03
2023-02-14T12:38:52.669Z,78.36
2023-02-14T12:41:29.196Z,79.00
2023-02-14T12:43:58.938Z,79.11
2023-02-14T12:46:43.016Z,78.88
2023-02-14T12:49:41.053Z,78.93
2023-02-14T12:52:20.849Z,78.79
2023-02-14T12:55:00.267Z,78.74
2023-02-14T12:57:36.518Z,79.50
2023-02-14T13:00:18.527Z,79.64
2023-02-14T13:03:14.456Z,79.20
2023-02-14T13:05:48.283Z,79.71
2023-02-14T13:08:25.401Z,79.32
2023-02-14T13:11:00.143Z,79.54
2023-02-14T13:13:46.652Z,79.58
2023-02-14T13:16:20.556Z,78.85
2023-02-14T13:18:51.291Z,78.67
2023-02-14T13:21:22.929Z,78.83
2023-02-14T13:23:53.780Z,79.67
2023-02-14T13:26:27.275Z,79.69
2023-02-14T13:28:58.094Z,79.93
2023-02-14T13:31:27.440Z,80.03
2023-02-14T13:33:58.934Z,80.00
2023-02-14T13:36:28.783Z,80.26
2023-02-14T13:38:58.537Z,80.04
2023-02-14T13:41:29.611Z,79.82
2023-02-14T13:44:01.635Z,80.26
2023-02-14T13:46:50.845Z,79.76
2023-02-14T13:49:27.666Z,79.99
2023-02-14T13:51:57.830Z,79.95
2023-02-14T13:54:32.883Z,79.79
2023-02-14T13:57:03.439Z,79.99
2023-02-14T13:59:35.766Z,79.59
2023-02-14T14:02:19.307Z,79.47
2023-02-14T14:04:48.414Z,79.08
2023-02-14T14:07:21.049Z,78.99
2023-02-14T14:10:02.332Z,79.39
2023-02-14T14:12:44.905Z,79.70
2023-02-14T14:15:19.377Z,80.29
2023-02-14T14:17:51.069Z,80.36
2023-02-14T14:20:42.555Z,80.50
2023-02-14T14:23:33.319Z,80.35
2023-02-14T14:26:02.968Z,79.98
2023-02-14T14:28:33.983Z,80.41
2023-02-14T14:31:02.092Z,80.14
2023-02-14T14:33:32.391Z,80.43
2023-02-14T14:36:02.812Z,80.41
2023-02-14T14:38:32.726Z,79.85
2023-02-14T14:41:02.050Z,80.26
2023-02-14T14:43:35.099Z,80.73
2023-02-14T14:46:04.348Z,80.84
2023-02-14T14:48:33.880Z,80.50
2023-02-14T14:51:04.499Z,80.63
2023-02-14T14:53:36.434Z,80.39
2023-02-14T14:56:05.099Z,80.54
2023-02-14T14:58:48.397Z,80.51
2023-02-14T15:02:00.349Z,80.74
2023-02-14T15:04:30.624Z,80.74
2023-02-14T15:07:17.795Z,80.94
2023-02-14T15:09:46.094Z,80.68
2023-02-14T15:12:44.664Z,80.46
2023-02-14T15:15:16.820Z,80.45
2023-02-14T15:17:45.635Z,80.44
2023-02-14T15:20:19.991Z,79.77
2023-02-14T15:22:50.892Z,79.93
2023-02-14T15:25:20.824Z,80.74
2023-02-14T15:27:49.710Z,80.82
2023-02-14T15:30:29.769Z,80.85
2023-02-14T15:32:59.182Z,81.14
2023-02-14T15:35:30.334Z,81.11
2023-02-14T15:38:02.009Z,80.90
2023-02-14T15:40:35.212Z,80.91
2023-02-14T15:43:17.510Z,80.68
2023-02-14T15:45:47.464Z,80.57
2023-02-14T15:48:19.448Z,80.82
2023-02-14T15:50:49.240Z,81.04
2023-02-14T15:53:30.832Z,81.33
2023-02-14T15:56:05.751Z,81.30
2023-02-14T15:58:35.574Z,81.30
2023-02-14T16:01:06.856Z,81.35
2023-02-14T16:03:38.409Z,81.03
2023-02-14T16:06:10.724Z,81.35
2023-02-14T16:08:41.684Z,81.28
2023-02-14T16:11:16.926Z,81.52
2023-02-14T16:13:46.694Z,81.17
2023-02-14T16:16:17.088Z,81.46
2023-02-14T16:18:47.699Z,81.40
2023-02-14T16:21:23.043Z,81.51
2023-02-14T16:24:12.251Z,81.19
2023-02-14T16:26:42.409Z,81.34
2023-02-14T16:29:13.106Z,81.40
2023-02-14T16:32:06.266Z,81.60
2023-02-14T16:34:34.352Z,81.35
2023-02-14T16:37:06.970Z,81.51
2023-02-14T16:39:35.552Z,81.76
2023-02-14T16:42:05.903Z,81.78
2023-02-14T16:44:34.309Z,82.05
2023-02-14T16:47:11.125Z,82.10
2023-02-14T16:49:39.185Z,82.21
2023-02-14T16:52:07.501Z,81.98
2023-02-14T16:54:35.875Z,81.92
2023-02-14T16:57:05.251Z,81.77
2023-02-14T16:59:33.435Z,81.93
2023-02-14T17:02:02.294Z,82.02
2023-02-14T17:04:31.958Z,81.71
2023-02-14T17:07:03.771Z,82.11
2023-02-14T17:09:34.028Z,82.01
2023-02-14T17:12:04.929Z,82.10
2023-02-14T17:14:34.949Z,82.13
2023-02-14T17:17:03.174Z,82.00
2023-02-14T17:19:33.220Z,82.00
2023-02-14T17:22:01.976Z,82.24
2023-02-14T17:24:30.129Z,82.55
2023-02-14T17:26:58.153Z,82.40
2023-02-14T17:29:27.502Z,82.44
2023-02-14T17:31:58.707Z,82.47
2023-02-14T17:34:27.221Z,82.57
2023-02-14T17:36:57.735Z,82.56
2023-02-14T17:39:25.829Z,82.71
2023-02-14T17:41:56.677Z,82.43
2023-02-14T17:44:24.936Z,82.38
2023-02-14T17:46:54.628Z,82.51
2023-02-14T17:49:22.996Z,82.39
2023-02-14T17:51:51.797Z,82.24
2023-02-14T17:54:21.433Z,82.38
2023-02-14T17:56:49.476Z,82.42
2023-02-14T17:59:17.759Z,82.41
2023-02-14T18:01:46.482Z,82.64
2023-02-14T18:04:14.818Z,82.62
2023-02-14T18:06:43.748Z,82.74
2023-02-14T18:09:11.833Z,82.71
2023-02-14T18:11:42.243Z,82.97
2023-02-14T18:14:10.583Z,83.13
2023-02-14T18:16:39.438Z,83.27
2023-02-14T18:19:10.189Z,83.26
2023-02-14T18:21:40.114Z,83.65
2023-02-14T18:24:09.090Z,83.80
2023-02-14T18:26:37.856Z,83.97
2023-02-14T18:29:08.018Z,83.99
2023-02-14T18:31:41.263Z,83.97
2023-02-14T18:34:10.164Z,84.10
2023-02-14T18:36:39.743Z,84.36
2023-02-14T18:39:09.472Z,84.56
2023-02-14T18:41:37.791Z,84.69
2023-02-14T18:44:07.942Z,84.79
2023-02-14T18:46:39.940Z,85.09
2023-02-14T18:49:08.719Z,85.23
2023-02-14T18:51:39.635Z,85.50
2023-02-14T18:54:10.175Z,85.59
2023-02-14T18:56:39.200Z,85.82
2023-02-14T18:59:10.116Z,86.25
2023-02-14T19:01:40.974Z,86.41
2023-02-14T19:04:12.192Z,86.64
2023-02-14T19:06:43.375Z,86.75
2023-02-14T19:09:12.827Z,86.90
2023-02-14T19:11:42.240Z,87.13
2023-02-14T19:14:13.482Z,87.27
2023-02-14T19:16:44.131Z,87.41
2023-02-14T19:19:12.686Z,87.40
2023-02-14T19:21:41.242Z,87.50
2023-02-14T19:24:09.369Z,87.46
2023-02-14T19:26:40.642Z,87.39
2023-02-14T19:29:12.124Z,87.92
2023-02-14T19:31:42.124Z,88.26
2023-02-14T19:34:19.117Z,88.58
2023-02-14T19:36:48.053Z,88.68
2023-02-14T19:39:16.631Z,88.69
2023-02-14T19:41:45.014Z,88.88
2023-02-14T19:44:17.049Z,89.33
2023-02-14T19:46:47.706Z,89.58
2023-02-14T19:49:17.732Z,89.72
2023-02-14T19:51:46.725Z,89.99
2023-02-14T19:54:15.696Z,90.09
2023-02-14T19:56:45.128Z,90.19
2023-02-14T19:59:19.926Z,90.44
2023-02-14T20:01:51.647Z,90.87
2023-02-14T20:04:21.708Z,90.96
2023-02-14T20:06:51.341Z,90.91
2023-02-14T20:09:22.846Z,90.89
2023-02-14T20:11:52.382Z,91.08
2023-02-14T20:14:24.084Z,91.50
2023-02-14T20:16:53.784Z,91.68
2023-02-14T20:19:24.382Z,91.91
2023-02-14T20:21:52.605Z,92.07
2023-02-14T20:24:24.100Z,92.26
2023-02-14T20:26:54.388Z,92.31
2023-02-14T20:29:25.386Z,92.31
2023-02-14T20:31:55.556Z,92.45
2023-02-14T20:34:23.882Z,92.49
2023-02-14T20:36:55.336Z,92.43
2023-02-14T20:39:28.784Z,92.55
2023-02-14T20:41:57.030Z,92.47
2023-02-14T20:44:26.672Z,92.52
2023-02-14T20:46:55.987Z,92.56
2023-02-14T20:49:25.866Z,92.55
2023-02-14T20:51:54.854Z,92.49
2023-02-14T20:54:24.673Z,92.58
2023-02-14T20:56:52.935Z,92.69
2023-02-14T20:59:26.299Z,92.55
2023-02-14T21:01:57.031Z,92.35
2023-02-14T21:04:25.745Z,92.36
2023-02-14T21:06:53.843Z,92.48
2023-02-14T21:09:21.892Z,92.49
2023-02-14T21:11:50.336Z,92.64
2023-02-14T21:14:20.816Z,92.77
2023-02-14T21:16:49.192Z,93.00
2023-02-14T21:19:19.792Z,93.14
2023-02-14T21:21:48.287Z,93.37
2023-02-14T21:24:17.488Z,93.41
2023-02-14T21:26:45.818Z,93.41
2023-02-14T21:29:14.025Z,93.39
2023-02-14T21:31:42.602Z,93.54
2023-02-14T21:34:10.991Z,93.53
2023-02-14T21:36:40.942Z,93.49
2023-02-14T21:39:09.091Z,93.53
2023-02-14T21:41:37.892Z,93.58
2023-02-14T21:44:07.210Z,93.80
2023-02-14T21:46:37.285Z,93.88
2023-02-14T21:49:24.406Z,94.03
2023-02-14T21:51:54.355Z,94.05
2023-02-14T21:54:23.008Z,94.18
2023-02-14T21:56:51.798Z,94.24
2023-02-14T21:59:20.166Z,94.30
2023-02-14T22:01:48.662Z,94.29
2023-02-14T22:04:16.649Z,94.28
2023-02-14T22:06:44.591Z,94.24
2023-02-14T22:09:17.415Z,94.24
2023-02-14T22:11:47.484Z,94.19
2023-02-14T22:14:16.186Z,94.18
2023-02-14T22:16:44.331Z,94.45
2023-02-14T22:19:14.942Z,94.46
2023-02-14T22:21:44.347Z,94.39
2023-02-14T22:24:14.183Z,94.34
2023-02-14T22:26:42.314Z,94.50
2023-02-14T22:29:12.222Z,94.69
2023-02-14T22:31:44.119Z,94.87
2023-02-14T22:34:14.337Z,95.04
2023-02-14T22:36:42.932Z,95.14
2023-02-14T22:39:16.631Z,95.13
2023-02-14T22:41:45.286Z,95.20
2023-02-14T22:44:13.845Z,95.22
2023-02-14T22:46:42.876Z,95.28
2023-02-14T22:49:15.262Z,95.38
2023-02-14T22:51:44.048Z,95.39
2023-02-14T22:54:16.157Z,95.45
2023-02-14T22:56:45.674Z,95.43
2023-02-14T22:59:18.983Z,95.40
2023-02-14T23:01:48.773Z,95.36
2023-02-14T23:04:17.494Z,95.26
2023-02-14T23:06:45.984Z,95.30
2023-02-14T23:09:16.575Z,95.26
2023-02-14T23:11:47.145Z,95.24
2023-02-14T23:14:34.222Z,95.43
2023-02-14T23:17:22.161Z,95.47
2023-02-14T23:20:07.715Z,95.43
2023-02-14T23:22:37.861Z,95.48
2023-02-14T23:25:09.899Z,95.42
2023-02-14T23:27:40.294Z,95.32
2023-02-14T23:30:10.726Z,95.32
2023-02-14T23:32:39.081Z,95.27
2023-02-14T23:35:07.820Z,95.37
2023-02-14T23:37:36.481Z,95.55
2023-02-14T23:40:05.220Z,95.62
2023-02-14T23:42:34.661Z,95.63
2023-02-14T23:45:17.037Z,95.66
2023-02-14T23:47:46.582Z,95.61
2023-02-14T23:50:14.740Z,95.64
2023-02-14T23:52:44.809Z,95.73
2023-02-14T23:55:13.371Z,95.75
2023-02-14T23:57:42.981Z,95.65
